Time;durP1;ratioP1;P1;durP2;ratioP2;P2;SDS_P1;SDS_P2;PMS_P1;PMS_P2;Temp;Humidity;BMP_temperature;BMP_pressure;BME280_temperature;BME280_humidity;BME280_pressure;Samples;Min_cycle;Max_cycle;Signal;HPM_P1;HPM_P2
2022/10/31 00:01:31;;;;;;;0.20;0.10;;;;;;;;;;4998074;28;20134;-88
2022/10/31 00:03:57;;;;;;;0.20;0.10;;;;;;;;;;5013894;28;20046;-85
2022/10/31 00:06:24;;;;;;;0.20;0.10;;;;;;;;;;5002113;28;20041;-90
2022/10/31 00:09:00;;;;;;;0.20;0.10;;;;;;;;;;5014292;28;20040;-86
2022/10/31 00:11:27;;;;;;;0.20;0.10;;;;;;;;;;5006722;28;20086;-86
2022/10/31 00:13:53;;;;;;;0.20;0.10;;;;;;;;;;5014453;28;20115;-89
2022/10/31 00:16:21;;;;;;;0.20;0.10;;;;;;;;;;5015647;28;20049;-88
2022/10/31 00:18:55;;;;;;;0.38;0.38;;;;;;;;;;5029294;28;20043;-86
2022/10/31 00:21:21;;;;;;;0.20;0.10;;;;;;;;;;5010248;28;20594;-89
2022/10/31 00:23:48;;;;;;;0.20;0.10;;;;;;;;;;5016343;28;20420;-88
2022/10/31 00:26:14;;;;;;;0.20;0.10;;;;;;;;;;5031240;28;20125;-86
2022/10/31 00:28:40;;;;;;;0.20;0.10;;;;;;;;;;5011437;28;20041;-90
2022/10/31 00:31:07;;;;;;;0.20;0.10;;;;;;;;;;5019442;28;20127;-89
2022/10/31 00:33:39;;;;;;;0.20;0.10;;;;;;;;;;5037061;28;20549;-89
2022/10/31 00:36:06;;;;;;;0.20;0.17;;;;;;;;;;5020171;28;20037;-87
2022/10/31 00:38:36;;;;;;;0.75;0.50;;;;;;;;;;5036513;28;20072;-87
2022/10/31 00:41:02;;;;;;;0.20;0.10;;;;;;;;;;5023377;28;20036;-86
2022/10/31 00:43:28;;;;;;;1.65;1.10;;;;;;;;;;5018225;28;20041;-86
2022/10/31 00:45:54;;;;;;;0.20;0.10;;;;;;;;;;5036856;28;20090;-86
2022/10/31 00:48:20;;;;;;;0.20;0.10;;;;;;;;;;5017723;28;20041;-86
2022/10/31 00:50:49;;;;;;;0.20;0.10;;;;;;;;;;5032834;28;20055;-87
2022/10/31 00:53:15;;;;;;;0.20;0.10;;;;;;;;;;5023404;28;20045;-86
2022/10/31 00:55:41;;;;;;;0.20;0.10;;;;;;;;;;5022389;28;20037;-87
2022/10/31 00:58:07;;;;;;;0.20;0.10;;;;;;;;;;5019271;28;20044;-87
2022/10/31 01:00:33;;;;;;;0.55;0.15;;;;;;;;;;5036314;28;20048;-88
2022/10/31 01:02:59;;;;;;;0.20;0.10;;;;;;;;;;5027073;22;20060;-86
2022/10/31 01:05:25;;;;;;;0.20;0.10;;;;;;;;;;5011317;28;20053;-86
2022/10/31 01:07:52;;;;;;;0.55;0.50;;;;;;;;;;5000226;28;20653;-85
2022/10/31 01:10:18;;;;;;;0.20;0.10;;;;;;;;;;4992647;28;20045;-85
2022/10/31 01:12:45;;;;;;;0.20;0.20;;;;;;;;;;4975685;28;20049;-86
2022/10/31 01:15:12;;;;;;;0.20;0.10;;;;;;;;;;4978730;28;20045;-86
2022/10/31 01:17:38;;;;;;;0.20;0.10;;;;;;;;;;4982991;28;20034;-86
2022/10/31 01:20:05;;;;;;;0.20;0.20;;;;;;;;;;4970991;28;20050;-85
2022/10/31 01:22:31;;;;;;;0.20;0.10;;;;;;;;;;4979550;28;20057;-87
2022/10/31 01:24:57;;;;;;;0.63;0.63;;;;;;;;;;4990931;28;20053;-85
2022/10/31 01:27:23;;;;;;;0.20;0.20;;;;;;;;;;4987420;28;20100;-86
2022/10/31 01:29:49;;;;;;;0.20;0.10;;;;;;;;;;4979586;28;20125;-86
2022/10/31 01:32:18;;;;;;;0.20;0.10;;;;;;;;;;4979959;28;20117;-85
2022/10/31 01:34:45;;;;;;;0.20;0.10;;;;;;;;;;4983929;28;20069;-86
2022/10/31 01:37:11;;;;;;;0.45;0.45;;;;;;;;;;5000675;28;20100;-86
2022/10/31 01:39:37;;;;;;;0.20;0.10;;;;;;;;;;4984707;28;20392;-86
2022/10/31 01:42:03;;;;;;;0.20;0.10;;;;;;;;;;4977990;28;20188;-86
2022/10/31 01:44:29;;;;;;;0.20;0.10;;;;;;;;;;4982960;28;20042;-86
2022/10/31 01:46:55;;;;;;;0.20;0.10;;;;;;;;;;4978670;28;20053;-86
2022/10/31 01:49:27;;;;;;;0.20;0.10;;;;;;;;;;4978705;28;20516;-87
2022/10/31 01:51:58;;;;;;;0.20;0.10;;;;;;;;;;4980985;28;20046;-86
2022/10/31 01:54:27;;;;;;;0.20;0.10;;;;;;;;;;4978648;28;20849;-86
2022/10/31 01:56:54;;;;;;;0.52;0.52;;;;;;;;;;4995048;28;20092;-85
2022/10/31 01:59:21;;;;;;;0.20;0.10;;;;;;;;;;4980374;28;20536;-88
2022/10/31 02:01:48;;;;;;;0.22;0.22;;;;;;;;;;4995682;28;20073;-86
2022/10/31 02:04:14;;;;;;;0.30;0.30;;;;;;;;;;4980934;28;20045;-86
2022/10/31 02:06:58;;;;;;;0.20;0.17;;;;;;;;;;4968343;28;20041;-86
2022/10/31 02:09:27;;;;;;;0.20;0.17;;;;;;;;;;4981636;28;20400;-87
2022/10/31 02:11:55;;;;;;;0.20;0.10;;;;;;;;;;4997389;28;20049;-87
2022/10/31 02:14:22;;;;;;;0.20;0.10;;;;;;;;;;4982927;28;20034;-86
2022/10/31 02:16:48;;;;;;;0.20;0.10;;;;;;;;;;4999384;28;20045;-86
2022/10/31 02:19:18;;;;;;;0.20;0.20;;;;;;;;;;4981828;28;20042;-87
2022/10/31 02:21:52;;;;;;;0.20;0.10;;;;;;;;;;4974914;28;20051;-85
2022/10/31 02:24:19;;;;;;;0.20;0.10;;;;;;;;;;4981261;28;20415;-86
2022/10/31 02:27:08;;;;;;;0.20;0.10;;;;;;;;;;4985822;28;20077;-86
2022/10/31 02:29:34;;;;;;;0.30;0.25;;;;;;;;;;4982959;28;20176;-86
2022/10/31 02:32:09;;;;;;;0.20;0.10;;;;;;;;;;4985612;28;20524;-88
2022/10/31 02:34:40;;;;;;;0.40;0.32;;;;;;;;;;4983302;28;20038;-87
2022/10/31 02:37:18;;;;;;;0.30;0.22;;;;;;;;;;5003540;28;21819;-87
2022/10/31 02:39:57;;;;;;;0.20;0.10;;;;;;;;;;5002580;28;20092;-88
2022/10/31 02:42:23;;;;;;;0.20;0.10;;;;;;;;;;4987918;28;20037;-88
2022/10/31 02:44:56;;;;;;;0.20;0.20;;;;;;;;;;4988338;28;20089;-88
2022/10/31 02:47:24;;;;;;;0.20;0.10;;;;;;;;;;4990403;28;20045;-88
2022/10/31 02:50:05;;;;;;;0.20;0.10;;;;;;;;;;4988563;28;20057;-88
2022/10/31 02:52:32;;;;;;;0.20;0.20;;;;;;;;;;4990371;28;20045;-88
2022/10/31 02:54:58;;;;;;;0.20;0.10;;;;;;;;;;4982956;28;20569;-87
2022/10/31 02:57:31;;;;;;;0.20;0.10;;;;;;;;;;4989598;28;20046;-88
2022/10/31 03:00:01;;;;;;;0.20;0.10;;;;;;;;;;4978962;28;20061;-88
2022/10/31 03:02:48;;;;;;;0.20;0.10;;;;;;;;;;4986009;28;20180;-87
2022/10/31 03:05:17;;;;;;;0.20;0.10;;;;;;;;;;4982137;28;20144;-86
2022/10/31 03:08:02;;;;;;;0.20;0.15;;;;;;;;;;4991016;28;20042;-88
2022/10/31 03:10:54;;;;;;;0.20;0.10;;;;;;;;;;4984243;28;20052;-88
2022/10/31 03:13:33;;;;;;;0.20;0.10;;;;;;;;;;4984546;28;20408;-87
2022/10/31 03:16:19;;;;;;;0.20;0.10;;;;;;;;;;4982524;28;20038;-88
2022/10/31 03:18:51;;;;;;;0.28;0.28;;;;;;;;;;4988660;28;20041;-88
2022/10/31 03:21:21;;;;;;;0.20;0.10;;;;;;;;;;4986229;28;20177;-88
2022/10/31 03:23:50;;;;;;;0.20;0.10;;;;;;;;;;4988355;28;20488;-88
2022/10/31 03:26:17;;;;;;;0.20;0.10;;;;;;;;;;4984440;28;20178;-88
2022/10/31 03:29:13;;;;;;;0.20;0.10;;;;;;;;;;4985921;28;20081;-88
2022/10/31 03:31:52;;;;;;;0.20;0.10;;;;;;;;;;4980588;28;20066;-88
2022/10/31 03:34:19;;;;;;;0.20;0.10;;;;;;;;;;4983246;28;20038;-88
2022/10/31 03:36:49;;;;;;;0.55;0.55;;;;;;;;;;4974162;28;20049;-88
2022/10/31 03:39:17;;;;;;;0.28;0.20;;;;;;;;;;4982135;28;20550;-88
2022/10/31 03:41:50;;;;;;;0.20;0.10;;;;;;;;;;4977060;28;20037;-88
2022/10/31 03:44:18;;;;;;;0.20;0.10;;;;;;;;;;4980455;28;20431;-88
2022/10/31 03:46:44;;;;;;;0.20;0.00;;;;;;;;;;4981172;28;20041;-87
2022/10/31 03:49:11;;;;;;;0.20;0.10;;;;;;;;;;4982977;28;20049;-86
2022/10/31 03:51:58;;;;;;;0.20;0.17;;;;;;;;;;4984541;28;20528;-86
2022/10/31 03:54:29;;;;;;;0.55;0.43;;;;;;;;;;4995652;28;20399;-88
2022/10/31 03:57:17;;;;;;;0.20;0.20;;;;;;;;;;4975938;28;20038;-87
2022/10/31 03:59:45;;;;;;;0.20;0.10;;;;;;;;;;4979832;28;20500;-88
2022/10/31 04:02:13;;;;;;;0.20;0.10;;;;;;;;;;4998828;28;20053;-87
2022/10/31 04:04:40;;;;;;;5.05;0.20;;;;;;;;;;5000099;28;20046;-88
2022/10/31 04:07:07;;;;;;;0.20;0.10;;;;;;;;;;4965220;28;20042;-89
2022/10/31 04:09:35;;;;;;;0.20;0.10;;;;;;;;;;4984396;28;20087;-88
2022/10/31 04:12:01;;;;;;;0.20;0.10;;;;;;;;;;4977442;28;20034;-87
2022/10/31 04:14:30;;;;;;;0.20;0.13;;;;;;;;;;4998654;28;20120;-87
2022/10/31 04:16:56;;;;;;;0.20;0.10;;;;;;;;;;4980437;28;20061;-87
2022/10/31 04:19:22;;;;;;;0.22;0.15;;;;;;;;;;5002111;28;20057;-87
2022/10/31 04:21:48;;;;;;;0.47;0.47;;;;;;;;;;4999731;28;20042;-87
2022/10/31 04:24:14;;;;;;;0.20;0.10;;;;;;;;;;4985474;28;20137;-87
2022/10/31 04:26:40;;;;;;;0.20;0.10;;;;;;;;;;4980746;28;20536;-87
2022/10/31 04:29:06;;;;;;;0.43;0.43;;;;;;;;;;4978721;28;20053;-87
2022/10/31 04:31:32;;;;;;;0.20;0.00;;;;;;;;;;4967968;28;20169;-88
2022/10/31 04:33:58;;;;;;;0.20;0.10;;;;;;;;;;4991835;28;20038;-87
2022/10/31 04:36:25;;;;;;;0.20;0.10;;;;;;;;;;4992699;28;20412;-87
2022/10/31 04:38:51;;;;;;;0.20;0.10;;;;;;;;;;5007815;28;20042;-86
2022/10/31 04:41:17;;;;;;;0.20;0.20;;;;;;;;;;4982375;28;20046;-88
2022/10/31 04:43:43;;;;;;;0.20;0.10;;;;;;;;;;4983748;28;20034;-87
2022/10/31 04:46:09;;;;;;;0.20;0.10;;;;;;;;;;4987064;28;20049;-87
2022/10/31 04:48:35;;;;;;;0.20;0.10;;;;;;;;;;4960737;28;20041;-87
2022/10/31 04:51:01;;;;;;;0.20;0.10;;;;;;;;;;4978105;28;20068;-87
2022/10/31 04:53:28;;;;;;;0.20;0.10;;;;;;;;;;4977237;28;20052;-87
2022/10/31 04:55:54;;;;;;;0.20;0.10;;;;;;;;;;4961832;28;20451;-87
2022/10/31 04:58:20;;;;;;;0.20;0.10;;;;;;;;;;4995955;28;20069;-88
2022/10/31 05:00:46;;;;;;;0.20;0.10;;;;;;;;;;4973928;28;20073;-88
2022/10/31 05:03:12;;;;;;;0.20;0.10;;;;;;;;;;4963785;28;20042;-87
2022/10/31 05:05:38;;;;;;;0.20;0.10;;;;;;;;;;4976282;28;20582;-88
2022/10/31 05:08:04;;;;;;;0.20;0.10;;;;;;;;;;4961756;28;20049;-87
2022/10/31 05:10:31;;;;;;;0.55;0.55;;;;;;;;;;4975901;28;20037;-87
2022/10/31 05:12:58;;;;;;;0.40;0.20;;;;;;;;;;4980595;28;20034;-87
2022/10/31 05:15:25;;;;;;;0.20;0.10;;;;;;;;;;5001860;28;20262;-86
2022/10/31 05:17:51;;;;;;;0.20;0.10;;;;;;;;;;4989198;28;20050;-88
2022/10/31 05:20:19;;;;;;;0.20;0.20;;;;;;;;;;4984509;28;20034;-88
2022/10/31 05:22:46;;;;;;;0.20;0.10;;;;;;;;;;5005399;28;20052;-87
2022/10/31 05:25:12;;;;;;;0.20;0.10;;;;;;;;;;4988710;28;20045;-88
2022/10/31 05:27:42;;;;;;;0.68;0.60;;;;;;;;;;4970745;28;20034;-87
2022/10/31 05:30:09;;;;;;;0.20;0.10;;;;;;;;;;4970056;28;20116;-88
2022/10/31 05:32:39;;;;;;;0.20;0.10;;;;;;;;;;4986902;28;22114;-88
2022/10/31 05:35:07;;;;;;;0.20;0.10;;;;;;;;;;5003095;28;20404;-88
2022/10/31 05:37:33;;;;;;;0.20;0.10;;;;;;;;;;5004432;28;20077;-87
2022/10/31 05:39:59;;;;;;;0.20;0.17;;;;;;;;;;4985614;28;20030;-88
2022/10/31 05:42:25;;;;;;;0.20;0.10;;;;;;;;;;4970078;28;20128;-88
2022/10/31 05:44:54;;;;;;;0.20;0.10;;;;;;;;;;4989395;28;20038;-88
2022/10/31 05:47:20;;;;;;;0.25;0.15;;;;;;;;;;4971407;28;20045;-89
2022/10/31 05:49:48;;;;;;;0.20;0.10;;;;;;;;;;4978722;28;20515;-88
2022/10/31 05:52:14;;;;;;;0.20;0.10;;;;;;;;;;4983211;28;20142;-88
2022/10/31 05:54:40;;;;;;;0.20;0.10;;;;;;;;;;4982638;28;20428;-88
2022/10/31 05:57:06;;;;;;;0.20;0.10;;;;;;;;;;4983610;28;20046;-87
2022/10/31 05:59:32;;;;;;;0.20;0.10;;;;;;;;;;4982001;28;20038;-87
2022/10/31 06:01:58;;;;;;;0.20;0.10;;;;;;;;;;4968499;28;20041;-87
2022/10/31 06:04:25;;;;;;;0.20;0.10;;;;;;;;;;4968086;28;20053;-88
2022/10/31 06:06:51;;;;;;;0.20;0.10;;;;;;;;;;4986217;28;20041;-88
2022/10/31 06:09:17;;;;;;;0.20;0.10;;;;;;;;;;4987441;28;20041;-87
2022/10/31 06:11:43;;;;;;;0.20;0.10;;;;;;;;;;4982562;28;20176;-87
2022/10/31 06:14:09;;;;;;;0.20;0.10;;;;;;;;;;4978206;28;20034;-87
2022/10/31 06:16:41;;;;;;;0.20;0.10;;;;;;;;;;4982343;28;20057;-88
2022/10/31 06:19:07;;;;;;;0.20;0.10;;;;;;;;;;4979775;28;21578;-87
2022/10/31 06:21:33;;;;;;;0.20;0.10;;;;;;;;;;4984682;28;20511;-87
2022/10/31 06:23:59;;;;;;;0.20;0.10;;;;;;;;;;4985948;28;20038;-87
2022/10/31 06:26:25;;;;;;;0.20;0.10;;;;;;;;;;4986478;28;20045;-87
2022/10/31 06:28:53;;;;;;;0.20;0.10;;;;;;;;;;4986029;28;20041;-87
2022/10/31 06:31:22;;;;;;;0.20;0.10;;;;;;;;;;4986628;28;20038;-87
2022/10/31 06:33:48;;;;;;;0.40;0.40;;;;;;;;;;4998809;28;20034;-87
2022/10/31 06:36:17;;;;;;;0.20;0.10;;;;;;;;;;4982044;28;20101;-88
2022/10/31 06:38:48;;;;;;;0.20;0.10;;;;;;;;;;4983427;28;20057;-87
2022/10/31 06:41:14;;;;;;;0.20;0.10;;;;;;;;;;4972722;28;20045;-88
2022/10/31 06:43:43;;;;;;;0.68;0.50;;;;;;;;;;4969242;28;20496;-87
2022/10/31 06:46:09;;;;;;;0.20;0.20;;;;;;;;;;4972525;28;20103;-88
2022/10/31 06:48:35;;;;;;;0.20;0.10;;;;;;;;;;4989601;28;20065;-89
2022/10/31 06:51:04;;;;;;;0.20;0.10;;;;;;;;;;4988595;28;20046;-87
2022/10/31 06:53:30;;;;;;;0.20;0.10;;;;;;;;;;4994093;28;20065;-88
2022/10/31 06:55:57;;;;;;;0.20;0.10;;;;;;;;;;4968416;28;20042;-88
2022/10/31 06:58:26;;;;;;;0.20;0.10;;;;;;;;;;4985962;28;20045;-87
2022/10/31 07:00:52;;;;;;;0.20;0.10;;;;;;;;;;4983053;28;20042;-87
2022/10/31 07:03:20;;;;;;;0.20;0.10;;;;;;;;;;5013921;22;20045;-87
2022/10/31 07:05:46;;;;;;;0.20;0.10;;;;;;;;;;5022392;28;20056;-87
2022/10/31 07:08:13;;;;;;;0.20;0.05;;;;;;;;;;5020441;28;20033;-87
2022/10/31 07:10:40;;;;;;;0.20;0.10;;;;;;;;;;5040697;28;20037;-87
2022/10/31 07:13:07;;;;;;;0.20;0.10;;;;;;;;;;5004409;28;20102;-87
2022/10/31 07:15:34;;;;;;;0.20;0.10;;;;;;;;;;5010092;22;20040;-85
2022/10/31 07:18:01;;;;;;;0.20;0.10;;;;;;;;;;5018809;28;20045;-86
2022/10/31 07:20:27;;;;;;;0.20;0.10;;;;;;;;;;5010259;28;20260;-85
2022/10/31 07:22:54;;;;;;;0.20;0.10;;;;;;;;;;5002744;28;20071;-85
2022/10/31 07:25:20;;;;;;;0.20;0.10;;;;;;;;;;4998787;28;20531;-85
2022/10/31 07:27:46;;;;;;;0.20;0.10;;;;;;;;;;4992995;28;20045;-85
2022/10/31 07:30:13;;;;;;;0.20;0.10;;;;;;;;;;5002912;28;20045;-85
2022/10/31 07:32:40;;;;;;;0.20;0.10;;;;;;;;;;5014109;28;20033;-85
2022/10/31 07:35:07;;;;;;;0.20;0.10;;;;;;;;;;5002432;28;20037;-86
2022/10/31 07:37:33;;;;;;;0.20;0.10;;;;;;;;;;4995165;28;20146;-86
2022/10/31 07:39:59;;;;;;;0.20;0.10;;;;;;;;;;4985163;28;20065;-86
2022/10/31 07:42:25;;;;;;;0.20;0.10;;;;;;;;;;5001015;28;20044;-85
2022/10/31 07:44:51;;;;;;;0.20;0.10;;;;;;;;;;5005328;28;20042;-86
2022/10/31 07:47:17;;;;;;;0.20;0.10;;;;;;;;;;4984045;28;20115;-86
2022/10/31 07:49:43;;;;;;;0.20;0.10;;;;;;;;;;4985362;28;20037;-86
2022/10/31 07:52:12;;;;;;;0.20;0.10;;;;;;;;;;4980826;28;20053;-86
2022/10/31 07:54:38;;;;;;;0.20;0.10;;;;;;;;;;4999171;28;20038;-86
2022/10/31 07:57:04;;;;;;;0.20;0.13;;;;;;;;;;4982993;28;20086;-85
2022/10/31 07:59:30;;;;;;;0.20;0.10;;;;;;;;;;5004457;28;20088;-85
2022/10/31 08:01:56;;;;;;;0.20;0.10;;;;;;;;;;4986813;28;20063;-85
2022/10/31 08:04:22;;;;;;;0.20;0.10;;;;;;;;;;5014679;28;20081;-86
2022/10/31 08:06:48;;;;;;;0.20;0.10;;;;;;;;;;4987189;28;20041;-85
2022/10/31 08:09:14;;;;;;;0.20;0.10;;;;;;;;;;4996572;28;20045;-85
2022/10/31 08:11:40;;;;;;;0.20;0.10;;;;;;;;;;4982327;28;21370;-85
2022/10/31 08:14:06;;;;;;;0.20;0.10;;;;;;;;;;4997138;28;20110;-85
2022/10/31 08:16:32;;;;;;;0.20;0.10;;;;;;;;;;4983674;28;20483;-86
2022/10/31 08:18:58;;;;;;;0.40;0.40;;;;;;;;;;4986968;28;20144;-86
2022/10/31 08:21:24;;;;;;;0.20;0.10;;;;;;;;;;4982414;28;20049;-86
2022/10/31 08:23:50;;;;;;;0.20;0.10;;;;;;;;;;4982497;28;20038;-85
2022/10/31 08:26:16;;;;;;;0.20;0.10;;;;;;;;;;4986541;28;20056;-86
2022/10/31 08:28:42;;;;;;;0.20;0.20;;;;;;;;;;5002540;28;20045;-86
2022/10/31 08:31:09;;;;;;;0.20;0.10;;;;;;;;;;5007259;28;20050;-85
2022/10/31 08:33:36;;;;;;;0.20;0.10;;;;;;;;;;4985563;28;20041;-85
2022/10/31 08:36:02;;;;;;;0.20;0.10;;;;;;;;;;4997831;28;20034;-86
2022/10/31 08:38:28;;;;;;;0.20;0.08;;;;;;;;;;4987020;28;20122;-86
2022/10/31 08:40:54;;;;;;;0.20;0.10;;;;;;;;;;5007506;28;20048;-86
2022/10/31 08:43:20;;;;;;;0.20;0.10;;;;;;;;;;4995974;28;20488;-85
2022/10/31 08:45:49;;;;;;;0.20;0.10;;;;;;;;;;5002857;28;20033;-85
2022/10/31 08:48:16;;;;;;;0.20;0.10;;;;;;;;;;5007717;28;20033;-86
2022/10/31 08:50:43;;;;;;;0.20;0.10;;;;;;;;;;5006959;28;20037;-86
2022/10/31 08:53:12;;;;;;;0.50;0.32;;;;;;;;;;4979198;28;20629;-86
2022/10/31 08:55:38;;;;;;;0.35;0.25;;;;;;;;;;4996101;28;20045;-86
2022/10/31 08:58:25;;;;;;;0.20;0.10;;;;;;;;;;5004048;28;20042;-86
2022/10/31 09:01:04;;;;;;;;;;;;;;;;;;;;;
2022/10/31 09:03:39;;;;;;;0.20;0.10;;;;;;;;;;5019048;28;20133;-85
2022/10/31 09:06:08;;;;;;;0.20;0.10;;;;;;;;;;5001491;28;20073;-85
2022/10/31 09:08:37;;;;;;;0.20;0.20;;;;;;;;;;5021791;28;20135;-85
2022/10/31 09:11:30;;;;;;;0.20;0.10;;;;;;;;;;5015376;28;20116;-86
2022/10/31 09:14:01;;;;;;;0.20;0.10;;;;;;;;;;5009496;28;20049;-87
2022/10/31 09:16:27;;;;;;;0.20;0.10;;;;;;;;;;5008506;28;20087;-86
2022/10/31 09:18:54;;;;;;;0.20;0.10;;;;;;;;;;5018348;28;20043;-85
2022/10/31 09:21:20;;;;;;;0.30;0.30;;;;;;;;;;5003720;28;20037;-86
2022/10/31 09:23:48;;;;;;;0.20;0.10;;;;;;;;;;5019971;28;20531;-87
2022/10/31 09:26:23;;;;;;;0.20;0.10;;;;;;;;;;5022415;28;20083;-87
2022/10/31 09:28:57;;;;;;;0.20;0.10;;;;;;;;;;4989140;28;20045;-88
2022/10/31 09:31:54;;;;;;;0.20;0.10;;;;;;;;;;4985344;28;20084;-87
2022/10/31 09:34:53;;;;;;;0.20;0.10;;;;;;;;;;5003757;28;20058;-87
2022/10/31 09:38:10;;;;;;;0.20;0.10;;;;;;;;;;4964140;28;20046;-86
2022/10/31 09:40:40;;;;;;;0.20;0.10;;;;;;;;;;4930896;28;20055;-86
2022/10/31 09:43:49;;;;;;;0.20;0.10;;;;;;;;;;4917315;28;20090;-87
2022/10/31 09:46:50;;;;;;;0.28;0.20;;;;;;;;;;4976959;28;20151;-86
2022/10/31 09:49:45;;;;;;;;;;;;;;;;;;;;;
2022/10/31 09:52:52;;;;;;;;;;;;;;;;;;;;;
2022/10/31 09:55:36;;;;;;;0.20;0.10;;;;;;;;;;4968586;28;20054;-86
2022/10/31 09:58:28;;;;;;;0.20;0.10;;;;;;;;;;4965951;28;20046;-85
2022/10/31 10:00:59;;;;;;;0.20;0.20;;;;;;;;;;4941816;28;20555;-86
2022/10/31 10:03:36;;;;;;;0.20;0.10;;;;;;;;;;4946458;28;20042;-85
2022/10/31 10:06:17;;;;;;;0.20;0.10;;;;;;;;;;4966169;28;20068;-86
2022/10/31 10:08:49;;;;;;;0.20;0.10;;;;;;;;;;4988418;28;20044;-86
2022/10/31 10:11:41;;;;;;;0.20;0.10;;;;;;;;;;5015089;28;20045;-85
2022/10/31 10:14:17;;;;;;;0.20;0.20;;;;;;;;;;5004881;28;20038;-86
2022/10/31 10:17:11;;;;;;;0.20;0.20;;;;;;;;;;5005359;28;20038;-85
2022/10/31 10:19:59;;;;;;;0.20;0.10;;;;;;;;;;4999509;28;20757;-88
2022/10/31 10:22:57;;;;;;;0.20;0.10;;;;;;;;;;5004917;28;20049;-85
2022/10/31 10:25:31;;;;;;;0.20;0.20;;;;;;;;;;4979342;28;20049;-85
2022/10/31 10:28:26;;;;;;;0.20;0.10;;;;;;;;;;5004114;28;20044;-87
2022/10/31 10:31:00;;;;;;;0.20;0.10;;;;;;;;;;4983461;28;20029;-84
2022/10/31 10:33:34;;;;;;;0.20;0.10;;;;;;;;;;4980121;28;20064;-86
2022/10/31 10:36:29;;;;;;;0.20;0.10;;;;;;;;;;4986131;28;20116;-85
2022/10/31 10:47:41;;;;;;;0.20;0.10;;;;;;;;;;4943027;28;20604;-86
2022/10/31 10:50:28;;;;;;;0.20;0.10;;;;;;;;;;4937689;28;20039;-86
2022/10/31 10:53:06;;;;;;;0.20;0.10;;;;;;;;;;4957638;28;20045;-85
2022/10/31 10:55:51;;;;;;;0.20;0.10;;;;;;;;;;4970618;28;20037;-85
2022/10/31 10:58:17;;;;;;;0.20;0.10;;;;;;;;;;4954673;28;20061;-87
2022/10/31 11:00:46;;;;;;;0.57;0.30;;;;;;;;;;4976567;28;20042;-85
2022/10/31 11:03:12;;;;;;;0.20;0.10;;;;;;;;;;4951846;28;20086;-84
2022/10/31 11:05:50;;;;;;;0.20;0.10;;;;;;;;;;4962946;28;20161;-85
2022/10/31 11:08:29;;;;;;;0.20;0.10;;;;;;;;;;4952409;28;20059;-86
2022/10/31 11:11:02;;;;;;;0.20;0.10;;;;;;;;;;4954958;28;20141;-84
2022/10/31 11:13:30;;;;;;;0.20;0.10;;;;;;;;;;5009238;28;20049;-86
2022/10/31 11:16:03;;;;;;;0.20;0.10;;;;;;;;;;4986284;28;20042;-85
2022/10/31 11:18:33;;;;;;;0.20;0.10;;;;;;;;;;5006230;28;20166;-86
2022/10/31 11:21:01;;;;;;;0.20;0.10;;;;;;;;;;5008572;28;20553;-85
2022/10/31 11:23:28;;;;;;;0.20;0.10;;;;;;;;;;5001811;28;20056;-84
2022/10/31 11:25:54;;;;;;;0.20;0.10;;;;;;;;;;5014538;28;20034;-84
2022/10/31 11:28:20;;;;;;;0.20;0.10;;;;;;;;;;5017043;28;20072;-85
2022/10/31 11:30:47;;;;;;;0.20;0.10;;;;;;;;;;5000923;28;20056;-86
2022/10/31 11:33:19;;;;;;;0.20;0.10;;;;;;;;;;5016381;28;20056;-85
2022/10/31 11:35:45;;;;;;;0.20;0.10;;;;;;;;;;5006408;28;20033;-85
2022/10/31 11:38:17;;;;;;;0.20;0.05;;;;;;;;;;5021748;28;20038;-85
2022/10/31 11:40:51;;;;;;;0.20;0.10;;;;;;;;;;4998462;28;20103;-85
2022/10/31 11:43:21;;;;;;;0.20;0.15;;;;;;;;;;5002610;28;20045;-85
2022/10/31 11:45:47;;;;;;;0.20;0.10;;;;;;;;;;5015256;28;20049;-84
2022/10/31 11:48:17;;;;;;;0.20;0.10;;;;;;;;;;4996159;28;20049;-85
2022/10/31 11:50:48;;;;;;;0.20;0.10;;;;;;;;;;5016171;28;20068;-85
2022/10/31 11:53:30;;;;;;;0.20;0.10;;;;;;;;;;5001668;28;20052;-85
2022/10/31 11:56:16;;;;;;;0.20;0.10;;;;;;;;;;4997875;28;20064;-85
2022/10/31 11:58:43;;;;;;;0.20;0.10;;;;;;;;;;5001986;28;20171;-85
2022/10/31 12:01:26;;;;;;;0.20;0.10;;;;;;;;;;5013886;28;20042;-85
2022/10/31 12:03:52;;;;;;;0.20;0.10;;;;;;;;;;5001282;28;20400;-86
2022/10/31 12:06:28;;;;;;;0.20;0.10;;;;;;;;;;5000975;28;20049;-85
2022/10/31 12:08:55;;;;;;;0.20;0.10;;;;;;;;;;5017549;28;20065;-85
2022/10/31 12:11:27;;;;;;;0.20;0.10;;;;;;;;;;5002476;28;20056;-86
2022/10/31 12:13:55;;;;;;;0.20;0.10;;;;;;;;;;5001797;28;20038;-84
2022/10/31 12:16:27;;;;;;;0.20;0.10;;;;;;;;;;5020425;28;20586;-85
2022/10/31 12:18:53;;;;;;;0.20;0.10;;;;;;;;;;5006241;28;20046;-86
2022/10/31 12:21:41;;;;;;;0.20;0.10;;;;;;;;;;5005990;28;20467;-85
2022/10/31 12:24:31;;;;;;;0.20;0.10;;;;;;;;;;5007411;28;20225;-86
2022/10/31 12:27:08;;;;;;;0.20;0.10;;;;;;;;;;5021563;28;20493;-85
2022/10/31 12:30:05;;;;;;;0.20;0.10;;;;;;;;;;5000902;28;20068;-85
2022/10/31 12:32:31;;;;;;;0.20;0.10;;;;;;;;;;5015495;28;20537;-87
2022/10/31 12:35:06;;;;;;;0.20;0.10;;;;;;;;;;5009805;28;20669;-84
2022/10/31 12:37:44;;;;;;;0.20;0.10;;;;;;;;;;5021499;28;20044;-87
2022/10/31 12:40:29;;;;;;;0.20;0.10;;;;;;;;;;5007761;28;20045;-86
2022/10/31 12:43:11;;;;;;;0.20;0.10;;;;;;;;;;5004334;28;20095;-87
2022/10/31 12:45:54;;;;;;;0.20;0.10;;;;;;;;;;5006259;28;20041;-88
2022/10/31 12:48:39;;;;;;;0.20;0.10;;;;;;;;;;5019995;28;20033;-85
2022/10/31 12:51:14;;;;;;;0.20;0.10;;;;;;;;;;5009244;28;20041;-86
2022/10/31 12:54:08;;;;;;;0.20;0.10;;;;;;;;;;5006374;28;20048;-87
2022/10/31 12:56:51;;;;;;;0.20;0.15;;;;;;;;;;5018466;28;20038;-85
2022/10/31 12:59:17;;;;;;;0.20;0.10;;;;;;;;;;4997648;28;20030;-85
2022/10/31 13:01:47;;;;;;;0.20;0.10;;;;;;;;;;5017690;28;20041;-86
2022/10/31 13:04:16;;;;;;;0.20;0.10;;;;;;;;;;5018407;28;20042;-85
2022/10/31 13:06:47;;;;;;;0.20;0.10;;;;;;;;;;5023840;28;20124;-86
2022/10/31 13:09:24;;;;;;;0.20;0.10;;;;;;;;;;5006748;28;20044;-84
2022/10/31 13:11:59;;;;;;;0.20;0.13;;;;;;;;;;5012020;28;20056;-86
2022/10/31 13:14:33;;;;;;;0.20;0.10;;;;;;;;;;5001843;28;20701;-84
2022/10/31 13:17:05;;;;;;;0.20;0.10;;;;;;;;;;5026382;22;20316;-89
2022/10/31 13:19:38;;;;;;;0.28;0.15;;;;;;;;;;5004710;28;20037;-86
2022/10/31 13:22:29;;;;;;;0.20;0.10;;;;;;;;;;5010994;28;20186;-89
2022/10/31 13:25:09;;;;;;;0.20;0.10;;;;;;;;;;5021986;28;20045;-89
2022/10/31 13:27:48;;;;;;;0.20;0.10;;;;;;;;;;5018764;28;20050;-89
2022/10/31 13:30:47;;;;;;;;;;;;;;;;;;;;;
2022/10/31 13:33:24;;;;;;;0.20;0.10;;;;;;;;;;5019359;28;20052;-89
2022/10/31 13:36:03;;;;;;;0.20;0.10;;;;;;;;;;5005425;28;20057;-87
2022/10/31 13:38:34;;;;;;;0.20;0.10;;;;;;;;;;4999784;28;20045;-87
2022/10/31 13:41:31;;;;;;;0.20;0.10;;;;;;;;;;5007441;28;20038;-90
2022/10/31 13:43:57;;;;;;;0.20;0.10;;;;;;;;;;4935497;28;20522;-88
2022/10/31 13:46:25;;;;;;;0.20;0.10;;;;;;;;;;5002299;28;20711;-88
2022/10/31 13:48:51;;;;;;;0.20;0.10;;;;;;;;;;5018452;28;20065;-89
2022/10/31 13:51:35;;;;;;;0.20;0.10;;;;;;;;;;5002407;28;20504;-88
2022/10/31 13:54:01;;;;;;;0.20;0.10;;;;;;;;;;5001770;28;20508;-90
2022/10/31 13:56:29;;;;;;;0.20;0.10;;;;;;;;;;5000560;28;20046;-91
2022/10/31 13:59:24;;;;;;;0.20;0.10;;;;;;;;;;5004091;28;20511;-90
2022/10/31 14:01:56;;;;;;;0.20;0.10;;;;;;;;;;5003341;28;20045;-89
2022/10/31 14:04:29;;;;;;;0.20;0.10;;;;;;;;;;4999924;28;20041;-89
2022/10/31 14:07:09;;;;;;;0.20;0.10;;;;;;;;;;5003679;28;20041;-90
2022/10/31 14:09:37;;;;;;;0.20;0.10;;;;;;;;;;5002999;28;20132;-88
2022/10/31 14:12:08;;;;;;;0.20;0.10;;;;;;;;;;5007542;28;20048;-89
2022/10/31 14:14:40;;;;;;;0.20;0.10;;;;;;;;;;5003762;28;20052;-90
2022/10/31 14:17:14;;;;;;;0.20;0.10;;;;;;;;;;5001520;28;20519;-89
2022/10/31 14:19:40;;;;;;;0.20;0.10;;;;;;;;;;5006736;28;20049;-89
2022/10/31 14:22:19;;;;;;;0.20;0.10;;;;;;;;;;5004278;28;20535;-88
2022/10/31 14:24:45;;;;;;;0.57;0.20;;;;;;;;;;5004753;28;20176;-89
2022/10/31 14:27:33;;;;;;;0.20;0.10;;;;;;;;;;4994291;28;20643;-88
2022/10/31 14:30:27;;;;;;;0.20;0.10;;;;;;;;;;5006294;28;20550;-90
2022/10/31 14:33:01;;;;;;;0.20;0.10;;;;;;;;;;5006612;28;20055;-90
2022/10/31 14:35:48;;;;;;;0.20;0.10;;;;;;;;;;5008193;28;20168;-88
2022/10/31 14:38:23;;;;;;;0.20;0.10;;;;;;;;;;5000362;28;20168;-88
2022/10/31 14:41:22;;;;;;;0.20;0.10;;;;;;;;;;5007727;28;20117;-88
2022/10/31 14:43:48;;;;;;;0.20;0.10;;;;;;;;;;4992973;28;20056;-89
2022/10/31 14:46:14;;;;;;;0.20;0.10;;;;;;;;;;5005486;28;20045;-89
2022/10/31 14:48:46;;;;;;;0.20;0.10;;;;;;;;;;5007518;28;20080;-88
2022/10/31 14:51:21;;;;;;;0.20;0.10;;;;;;;;;;5001959;28;20049;-87
2022/10/31 14:54:01;;;;;;;0.20;0.10;;;;;;;;;;5021497;28;20046;-89
2022/10/31 14:56:41;;;;;;;0.20;0.10;;;;;;;;;;5011416;28;20126;-87
2022/10/31 14:59:09;;;;;;;0.20;0.10;;;;;;;;;;5003221;28;20557;-89
2022/10/31 15:01:37;;;;;;;0.20;0.10;;;;;;;;;;5006237;28;20045;-88
2022/10/31 15:04:14;;;;;;;0.20;0.10;;;;;;;;;;5023009;28;20085;-89
2022/10/31 15:06:53;;;;;;;0.20;0.10;;;;;;;;;;5013762;28;20048;-88
2022/10/31 15:09:43;;;;;;;0.20;0.10;;;;;;;;;;5017321;28;20120;-89
2022/10/31 15:12:28;;;;;;;0.20;0.10;;;;;;;;;;5010180;28;20069;-87
2022/10/31 15:15:16;;;;;;;0.20;0.10;;;;;;;;;;5026410;28;20053;-88
2022/10/31 15:17:50;;;;;;;0.28;0.28;;;;;;;;;;5024050;28;20087;-87
2022/10/31 15:20:26;;;;;;;0.20;0.10;;;;;;;;;;5023420;28;20053;-89
2022/10/31 15:22:56;;;;;;;0.20;0.10;;;;;;;;;;5012190;28;20033;-88